Map

Track Data

SID SEASON NUMBER BASIN SUBBASIN NAME ISO_TIME NATURE LAT LON WMO_WIND WMO_PRES WMO_AGENCY TRACK_TYPE DIST2LAND LANDFALL IFLAG USA_AGENCY USA_ATCF_ID USA_LAT USA_LON USA_RECORD USA_STATUS USA_WIND USA_PRES USA_SSHS USA_R34_NE USA_R34_SE USA_R34_SW USA_R34_NW USA_R50_NE USA_R50_SE USA_R50_SW USA_R50_NW USA_R64_NE USA_R64_SE USA_R64_SW USA_R64_NW USA_POCI USA_ROCI USA_RMW USA_EYE TOKYO_LAT TOKYO_LON TOKYO_GRADE TOKYO_WIND TOKYO_PRES TOKYO_R50_DIR TOKYO_R50_LONG TOKYO_R50_SHORT TOKYO_R30_DIR TOKYO_R30_LONG TOKYO_R30_SHORT TOKYO_LAND CMA_LAT CMA_LON CMA_CAT CMA_WIND CMA_PRES HKO_LAT HKO_LON HKO_CAT HKO_WIND HKO_PRES NEWDELHI_LAT NEWDELHI_LON NEWDELHI_GRADE NEWDELHI_WIND NEWDELHI_PRES NEWDELHI_CI NEWDELHI_DP NEWDELHI_POCI REUNION_LAT REUNION_LON REUNION_TYPE REUNION_WIND REUNION_PRES REUNION_TNUM REUNION_CI REUNION_RMW REUNION_R34_NE REUNION_R34_SE REUNION_R34_SW REUNION_R34_NW REUNION_R50_NE REUNION_R50_SE REUNION_R50_SW REUNION_R50_NW REUNION_R64_NE REUNION_R64_SE REUNION_R64_SW REUNION_R64_NW BOM_LAT BOM_LON BOM_TYPE BOM_WIND BOM_PRES BOM_TNUM BOM_CI BOM_RMW BOM_R34_NE BOM_R34_SE BOM_R34_SW BOM_R34_NW BOM_R50_NE BOM_R50_SE BOM_R50_SW BOM_R50_NW BOM_R64_NE BOM_R64_SE BOM_R64_SW BOM_R64_NW BOM_ROCI BOM_POCI BOM_EYE BOM_POS_METHOD BOM_PRES_METHOD NADI_LAT NADI_LON NADI_CAT NADI_WIND NADI_PRES WELLINGTON_LAT WELLINGTON_LON WELLINGTON_WIND WELLINGTON_PRES DS824_LAT DS824_LON DS824_STAGE DS824_WIND DS824_PRES TD9636_LAT TD9636_LON TD9636_STAGE TD9636_WIND TD9636_PRES TD9635_LAT TD9635_LON TD9635_WIND TD9635_PRES TD9635_ROCI NEUMANN_LAT NEUMANN_LON NEUMANN_CLASS NEUMANN_WIND NEUMANN_PRES MLC_LAT MLC_LON MLC_CLASS MLC_WIND MLC_PRES USA_GUST BOM_GUST BOM_GUST_PER REUNION_GUST REUNION_GUST_PER USA_SEAHGT USA_SEARAD_NE USA_SEARAD_SE USA_SEARAD_SW USA_SEARAD_NW STORM_SPEED STORM_DIR
1920172N20087 1920 19 NI BB NOT_NAMED 1920-06-20 00:00:00 TS 19.6000 87.0000 main 77 61 _________O____ -1 19.6000 87.0000 TC 30 3 271
1920172N20087 1920 19 NI BB NOT_NAMED 1920-06-20 03:00:00 TS 19.6017 86.8333 main 61 49 _________PO___ -1 19.6026 86.7500 TC 30 19.6000 87.0000 1 4 270
1920172N20087 1920 19 NI BB NOT_NAMED 1920-06-20 06:00:00 TS 19.5989 86.5989 main 49 44 _________OP___ -1 19.6000 86.5000 TC 30 19.5972 86.7471 1 5 269
1920172N20087 1920 19 NI BB NOT_NAMED 1920-06-20 09:00:00 TS 19.5937 86.3552 main 44 33 _________PP___ -1 19.5925 86.2500 TC 30 19.5953 86.4954 1 4 270
1920172N20087 1920 19 NI BB NOT_NAMED 1920-06-20 12:00:00 TS 19.5979 86.1230 main 33 24 _________OP___ -1 19.6000 86.0000 TC 30 19.5958 86.2460 1 5 273
1920172N20087 1920 19 NI BB NOT_NAMED 1920-06-20 15:00:00 TS 19.6137 85.8750 main 24 10 _________PO___ -1 19.6275 85.7499 TC 30 19.6000 86.0000 1 5 277
1920172N20087 1920 19 NI BB NOT_NAMED 1920-06-20 18:00:00 TS 19.6571 85.6287 main 10 0 _________OP___ -1 19.7000 85.5000 TC 30 19.6142 85.7575 1 5 284
1920172N20087 1920 19 NI BB NOT_NAMED 1920-06-20 21:00:00 TS 19.7273 85.3856 main 0 0 _________PP___ -1 19.7899 85.2572 TC 30 19.6648 85.5139 1 5 297
1920172N20087 1920 19 NI BB NOT_NAMED 1920-06-21 00:00:00 TS 19.8915 85.1317 main 0 0 _________OP___ -1 20.0000 85.0000 TC 30 19.7829 85.2634 1 7 314
1920172N20087 1920 19 NI BB NOT_NAMED 1920-06-21 03:00:00 TS 20.2025 84.8538 main 0 0 _________PO___ -1 20.4050 84.7076 TC 30 20.0000 85.0000 1 9 324
1920172N20087 1920 19 NI BB NOT_NAMED 1920-06-21 06:00:00 TS 20.6287 84.5595 main 0 0 _________OP___ -1 20.9000 84.4000 TC 30 20.3574 84.7189 1 10 328
1920172N20087 1920 19 NI BB NOT_NAMED 1920-06-21 09:00:00 TS 21.0837 84.2615 main 0 0 _________PP___ -1 21.3574 84.0999 TC 30 20.8099 84.4231 1 11 329
1920172N20087 1920 19 NI BB NOT_NAMED 1920-06-21 12:00:00 TS 21.5537 83.9578 main 0 0 _________OP___ -1 21.8000 83.8000 TC 30 21.3074 84.1156 1 11 328
1920172N20087 1920 19 NI BB NOT_NAMED 1920-06-21 15:00:00 TS 22.0037 83.6536 main 0 0 _________PO___ -1 22.2074 83.5072 TC 30 21.8000 83.8000 1 10 326
1920172N20087 1920 19 NI BB NOT_NAMED 1920-06-21 18:00:00 TS 22.4193 83.3370 main 0 0 _________OP___ -1 22.6000 83.2000 TC 30 22.2387 83.4741 1 10 324
1920172N20087 1920 19 NI BB NOT_NAMED 1920-06-21 21:00:00 TS 22.8412 82.9963 main 0 0 _________PP___ -1 23.0225 82.8501 TC 30 22.6599 83.1426 1 10 322
1920172N20087 1920 19 NI BB NOT_NAMED 1920-06-22 00:00:00 TS 23.2256 82.6574 main 0 0 _________OP___ -1 23.4000 82.5000 TC 30 23.0512 82.8148 1 9 319
1920172N20087 1920 19 NI BB NOT_NAMED 1920-06-22 03:00:00 TS 23.5362 82.3424 main 0 0 _________PO___ -1 23.6724 82.1847 TC 30 23.4000 82.5000 1 8 316
1920172N20087 1920 19 NI BB NOT_NAMED 1920-06-22 06:00:00 TS 23.7985 82.0509 main 0 0 _________OP___ -1 23.9000 81.9000 TC 30 23.6970 82.2017 1 7 315
1920172N20087 1920 19 NI BB NOT_NAMED 1920-06-22 09:00:00 TS 24.0548 81.7807 main 0 0 _________PP___ -1 24.1574 81.6424 TC 30 23.9522 81.9191 1 7 316
1920172N20087 1920 19 NI BB NOT_NAMED 1920-06-22 12:00:00 TS 24.2907 81.5260 main 0 0 _________OP___ -1 24.4000 81.4000 TC 30 24.1814 81.6519 1 6 314
1920172N20087 1920 19 NI BB NOT_NAMED 1920-06-22 15:00:00 TS 24.5000 81.2712 main 0 0 _________PO___ -1 24.6000 81.1424 TC 30 24.4000 81.4000 1 6 313
1920172N20087 1920 19 NI BB NOT_NAMED 1920-06-22 18:00:00 TS 24.7057 81.0379 main 0 0 _________OP___ -1 24.8000 80.9000 TC 30 24.6115 81.1759 1 6 317
1920172N20087 1920 19 NI BB NOT_NAMED 1920-06-22 21:00:00 TS 24.9234 80.8391 main 0 0 _________PP___ -1 25.0273 80.7147 TC 30 24.8194 80.9635 1 6 321
1920172N20087 1920 19 NI BB NOT_NAMED 1920-06-23 00:00:00 TS 25.1713 80.6222 main 0 0 _________OP___ -1 25.3000 80.5000 TC 30 25.0427 80.7445 1 7 320
1920172N20087 1920 19 NI BB NOT_NAMED 1920-06-23 03:00:00 TS 25.4676 80.3326 main 0 0 _________PO___ -1 25.6351 80.1651 TC 30 25.3000 80.5000 1 9 319
1920172N20087 1920 19 NI BB NOT_NAMED 1920-06-23 06:00:00 TS 25.8091 80.0000 main 0 0 _________OP___ -1 26.0000 79.8000 TC 30 25.6183 80.2000 1 9 320
1920172N20087 1920 19 NI BB NOT_NAMED 1920-06-23 09:00:00 TS 26.1638 79.6826 main 0 0 _________PP___ -1 26.3574 79.4923 TC 30 25.9702 79.8729 1 9 321
1920172N20087 1920 19 NI BB NOT_NAMED 1920-06-23 12:00:00 TS 26.5185 79.3671 main 0 0 _________OP___ -1 26.7000 79.2000 TC 30 26.3370 79.5343 1 9 320
1920172N20087 1920 19 NI BB NOT_NAMED 1920-06-23 15:00:00 TS 26.8500 79.0499 main 0 0 _________PO___ -1 26.9999 78.8997 TC 30 26.7000 79.2000 1 8 320
1920172N20087 1920 19 NI BB NOT_NAMED 1920-06-23 18:00:00 TS 27.1541 78.7615 main 0 0 _________OP___ -1 27.3000 78.6000 TC 30 27.0447 78.8827 1 8 321
1920172N20087 1920 19 NI BB NOT_NAMED 1920-06-23 21:00:00 TS 27.4787 78.4686 main 0 0 _________PP___ -1 27.6376 78.3005 TC 30 27.3727 78.5806 1 8 322
1920172N20087 1920 19 NI BB NOT_NAMED 1920-06-24 00:00:00 TS 27.7929 78.1922 main 0 0 _________OP___ -1 28.0000 78.0000 TC 30 27.6893 78.2883 1 7 321
1920172N20087 1920 19 NI AS NOT_NAMED 1920-06-24 03:00:00 NR 28.0000 78.0000 main 0 __________O___ -1 TC 28.0000 78.0000 1 5 321

About IBTrACS Database

This database is a web-friendly format of International Best Track Archive for Climate Stewardship (IBTrACS), a global best track data archive curated by NOAA dating back to 1842.

Updated: 2021-11-26